createdAt,value
2022-09-11T00:02:53.254Z,100529.16
2022-09-11T00:05:55.042Z,100523.41
2022-09-11T00:09:02.657Z,100529.94
2022-09-11T00:12:04.379Z,100525.06
2022-09-11T00:15:07.426Z,100524.47
2022-09-11T00:18:13.112Z,100528.16
2022-09-11T00:21:16.281Z,100519.91
2022-09-11T00:24:17.912Z,100522.88
2022-09-11T00:27:19.501Z,100530.50
2022-09-11T00:30:21.160Z,100532.75
2022-09-11T00:33:22.889Z,100527.50
2022-09-11T00:36:28.971Z,100528.34
2022-09-11T00:39:30.713Z,100525.03
2022-09-11T00:42:32.279Z,100523.47
2022-09-11T00:45:35.648Z,100532.56
2022-09-11T00:48:38.076Z,100536.75
2022-09-11T00:51:41.636Z,100540.09
2022-09-11T00:54:49.628Z,100540.34
2022-09-11T00:57:58.412Z,100547.69
2022-09-11T01:01:01.813Z,100549.53
2022-09-11T01:04:05.538Z,100551.25
2022-09-11T01:07:07.246Z,100550.28
2022-09-11T01:10:10.634Z,100555.66
2022-09-11T01:13:50.946Z,100559.31
2022-09-11T01:17:15.761Z,100557.75
2022-09-11T01:20:45.615Z,100564.97
2022-09-11T01:24:13.420Z,100567.94
2022-09-11T01:27:39.838Z,100561.56
2022-09-11T01:30:47.517Z,100563.00
2022-09-11T01:34:05.886Z,100571.44
2022-09-11T01:37:13.963Z,100576.69
2022-09-11T01:40:26.217Z,100570.06
2022-09-11T01:43:32.683Z,100571.66
2022-09-11T01:46:41.054Z,100575.13
2022-09-11T01:50:04.743Z,100573.38
2022-09-11T01:53:09.749Z,100587.09
2022-09-11T01:56:19.495Z,100573.06
2022-09-11T01:59:28.754Z,100580.38
2022-09-11T02:02:36.170Z,100571.16
2022-09-11T02:05:44.563Z,100577.16
2022-09-11T02:09:21.705Z,100578.31
2022-09-11T02:12:34.114Z,100579.75
2022-09-11T02:15:44.201Z,100576.56
2022-09-11T02:18:57.622Z,100576.88
2022-09-11T02:21:59.341Z,100575.75
2022-09-11T02:25:02.944Z,100588.56
2022-09-11T02:28:04.582Z,100590.03
2022-09-11T02:31:07.795Z,100591.34
2022-09-11T02:34:13.193Z,100593.63
2022-09-11T02:37:41.028Z,100589.41
2022-09-11T02:40:55.312Z,100598.06
2022-09-11T02:44:19.951Z,100599.53
2022-09-11T02:47:49.528Z,100597.41
2022-09-11T02:51:00.260Z,100604.38
2022-09-11T02:54:26.738Z,100608.66
2022-09-11T02:57:55.823Z,100612.78
2022-09-11T03:01:03.045Z,100615.34
2022-09-11T03:04:06.164Z,100621.75
2022-09-11T03:07:08.129Z,100626.75
2022-09-11T03:10:11.667Z,100627.59
2022-09-11T03:13:14.828Z,100628.31
2022-09-11T03:16:20.286Z,100631.75
2022-09-11T03:19:22.790Z,100631.47
2022-09-11T03:22:24.674Z,100629.72
2022-09-11T03:25:30.742Z,100633.16
2022-09-11T03:28:35.519Z,100629.31
2022-09-11T03:31:41.250Z,100632.03
2022-09-11T03:34:42.889Z,100633.75
2022-09-11T03:37:46.795Z,100628.19
2022-09-11T03:40:48.466Z,100637.31
2022-09-11T03:43:50.049Z,100636.59
2022-09-11T03:46:53.040Z,100640.00
2022-09-11T03:49:55.914Z,100635.16
2022-09-11T03:52:58.185Z,100633.19
2022-09-11T03:56:03.914Z,100642.03
2022-09-11T03:59:10.382Z,100642.03
2022-09-11T04:02:13.249Z,100647.28
2022-09-11T04:05:15.225Z,100644.31
2022-09-11T04:08:16.923Z,100644.16
2022-09-11T04:11:21.514Z,100644.03
2022-09-11T04:14:24.519Z,100642.31
2022-09-11T04:17:30.477Z,100637.78
2022-09-11T04:20:32.738Z,100646.88
2022-09-11T04:23:34.512Z,100652.44
2022-09-11T04:26:36.152Z,100658.06
2022-09-11T04:29:52.595Z,100659.19
2022-09-11T04:32:54.762Z,100664.59
2022-09-11T04:35:56.938Z,100667.31
2022-09-11T04:39:00.454Z,100669.03
2022-09-11T04:42:02.355Z,100668.00
2022-09-11T04:45:04.888Z,100678.78
2022-09-11T04:48:07.677Z,100678.94
2022-09-11T04:51:09.370Z,100676.38
2022-09-11T04:54:16.538Z,100678.34
2022-09-11T04:57:18.441Z,100678.50
2022-09-11T05:00:20.610Z,100678.63
2022-09-11T05:03:22.392Z,100677.91
2022-09-11T05:06:24.060Z,100679.75
2022-09-11T05:09:26.832Z,100683.19
2022-09-11T05:12:32.234Z,100685.16
2022-09-11T05:15:34.536Z,100689.81
2022-09-11T05:18:36.745Z,100689.13
2022-09-11T05:21:38.574Z,100694.38
2022-09-11T05:24:40.829Z,100698.66
2022-09-11T05:27:42.412Z,100697.69
2022-09-11T05:30:44.229Z,100702.09
2022-09-11T05:33:46.295Z,100709.06
2022-09-11T05:36:48.143Z,100710.19
2022-09-11T05:39:49.816Z,100721.84
2022-09-11T05:42:53.149Z,100728.25
2022-09-11T05:45:56.746Z,100733.75
2022-09-11T05:49:00.179Z,100735.88
2022-09-11T05:52:03.083Z,100738.59
2022-09-11T05:55:06.985Z,100748.66
2022-09-11T05:58:08.616Z,100737.00
2022-09-11T06:01:12.751Z,100755.75
2022-09-11T06:04:18.517Z,100763.75
2022-09-11T06:07:22.012Z,100764.84
2022-09-11T06:10:25.287Z,100776.38
2022-09-11T06:13:34.270Z,100768.13
2022-09-11T06:16:37.267Z,100777.34
2022-09-11T06:19:45.369Z,100772.69
2022-09-11T06:22:46.965Z,100784.50
2022-09-11T06:25:48.542Z,100790.63
2022-09-11T06:28:51.028Z,100796.16
2022-09-11T06:31:52.964Z,100797.25
2022-09-11T06:34:58.919Z,100801.09
2022-09-11T06:38:01.139Z,100811.03
2022-09-11T06:41:04.836Z,100816.56
2022-09-11T06:44:10.613Z,100818.78
2022-09-11T06:47:14.020Z,100818.66
2022-09-11T06:50:15.837Z,100815.25
2022-09-11T06:53:31.673Z,100814.84
2022-09-11T06:56:33.315Z,100817.28
2022-09-11T06:59:35.910Z,100815.44
2022-09-11T07:02:37.679Z,100818.00
2022-09-11T07:05:46.374Z,100815.16
2022-09-11T07:08:54.583Z,100818.59
2022-09-11T07:11:56.317Z,100821.28
2022-09-11T07:15:00.204Z,100829.13
2022-09-11T07:18:02.793Z,100828.00
2022-09-11T07:21:07.689Z,100834.28
2022-09-11T07:24:10.680Z,100827.31
2022-09-11T07:27:19.292Z,100831.16
2022-09-11T07:30:22.453Z,100836.06
2022-09-11T07:33:28.090Z,100838.50
2022-09-11T07:36:35.251Z,100836.38
2022-09-11T07:39:41.076Z,100838.69
2022-09-11T07:42:50.560Z,100839.41
2022-09-11T07:45:56.583Z,100835.47
2022-09-11T07:48:58.809Z,100846.59
2022-09-11T07:52:03.507Z,100855.16
2022-09-11T07:55:13.571Z,100856.31
2022-09-11T07:58:15.587Z,100853.97
2022-09-11T08:01:20.966Z,100853.03
2022-09-11T08:04:23.213Z,100852.38
2022-09-11T08:07:25.525Z,100854.38
2022-09-11T08:10:28.350Z,100856.25
2022-09-11T08:13:31.546Z,100858.59
2022-09-11T08:16:36.089Z,100853.22
2022-09-11T08:19:38.946Z,100869.59
2022-09-11T08:22:42.012Z,100869.31
2022-09-11T08:25:44.941Z,100873.88
2022-09-11T08:28:47.896Z,100870.16
2022-09-11T08:31:51.038Z,100871.63
2022-09-11T08:34:53.439Z,100880.06
2022-09-11T08:37:55.742Z,100878.47
2022-09-11T08:41:00.044Z,100887.34
2022-09-11T08:44:04.608Z,100884.50
2022-09-11T08:47:14.601Z,100884.97
2022-09-11T08:50:24.058Z,100891.81
2022-09-11T08:53:30.786Z,100887.09
2022-09-11T08:56:36.402Z,100895.66
2022-09-11T08:59:58.859Z,100906.50
2022-09-11T09:03:22.445Z,100903.81
2022-09-11T09:06:50.084Z,100908.78
2022-09-11T09:09:59.759Z,100913.78
2022-09-11T09:13:27.693Z,100909.50
2022-09-11T09:16:43.993Z,100914.75
2022-09-11T09:20:14.599Z,100916.84
2022-09-11T09:23:25.434Z,100916.84
2022-09-11T09:26:38.422Z,100913.31
2022-09-11T09:29:42.700Z,100915.72
2022-09-11T09:33:25.873Z,100918.03
2022-09-11T09:36:37.212Z,100922.75
2022-09-11T09:39:40.367Z,100924.63
2022-09-11T09:43:13.874Z,100924.47
2022-09-11T09:46:22.238Z,100928.03
2022-09-11T09:49:33.162Z,100928.03
2022-09-11T09:52:36.139Z,100919.78
2022-09-11T09:55:39.355Z,100928.03
2022-09-11T09:58:48.958Z,100932.31
2022-09-11T10:01:52.469Z,100934.44
2022-09-11T10:05:26.356Z,100936.59
2022-09-11T10:08:35.531Z,100934.16
2022-09-11T10:11:37.179Z,100933.00
2022-09-11T10:14:52.204Z,100938.16
2022-09-11T10:18:17.097Z,100932.75
2022-09-11T10:21:18.660Z,100937.84
2022-09-11T10:24:23.992Z,100935.53
2022-09-11T10:27:29.012Z,100933.22
2022-09-11T10:30:32.942Z,100936.34
2022-09-11T10:33:40.045Z,100938.09
2022-09-11T10:36:55.057Z,100941.78
2022-09-11T10:40:19.227Z,100944.94
2022-09-11T10:43:25.560Z,100948.66
2022-09-11T10:46:42.871Z,100947.81
2022-09-11T10:49:45.573Z,100950.53
2022-09-11T10:53:10.331Z,100947.28
2022-09-11T10:56:12.382Z,100950.13
2022-09-11T10:59:22.489Z,100952.56
2022-09-11T11:02:34.375Z,100953.66
2022-09-11T11:05:48.030Z,100952.94
2022-09-11T11:09:10.217Z,100956.22
2022-09-11T11:12:41.214Z,100952.06
2022-09-11T11:15:57.533Z,100951.16
2022-09-11T11:19:18.820Z,100961.13
2022-09-11T11:22:42.132Z,100960.72
2022-09-11T11:26:18.136Z,100962.53
2022-09-11T11:29:50.758Z,100966.94
2022-09-11T11:33:19.901Z,100955.03
2022-09-11T11:36:34.457Z,100963.41
2022-09-11T11:40:00.277Z,100966.78
2022-09-11T11:43:13.327Z,100973.78
2022-09-11T11:46:23.638Z,100968.03
2022-09-11T11:49:49.222Z,100972.31
2022-09-11T11:53:02.514Z,100968.03
2022-09-11T11:56:22.804Z,100970.91
2022-09-11T11:59:36.813Z,100969.19
2022-09-11T12:02:45.333Z,100969.50
2022-09-11T12:05:46.975Z,100970.91
2022-09-11T12:08:48.701Z,100970.25
2022-09-11T12:11:53.433Z,100969.81
2022-09-11T12:15:00.596Z,100972.69
2022-09-11T12:18:07.000Z,100972.00
2022-09-11T12:21:23.886Z,100971.53
2022-09-11T12:24:59.113Z,100968.75
2022-09-11T12:28:29.976Z,100967.41
2022-09-11T12:31:53.468Z,100970.28
2022-09-11T12:34:55.006Z,100974.72
2022-09-11T12:38:26.434Z,100969.41
2022-09-11T12:41:34.204Z,100962.84
2022-09-11T12:44:48.043Z,100963.75
2022-09-11T12:47:50.164Z,100961.94
2022-09-11T12:50:58.007Z,100955.09
2022-09-11T12:54:03.765Z,100963.53
2022-09-11T12:57:09.233Z,100963.28
2022-09-11T13:00:24.037Z,100965.56
2022-09-11T13:03:31.305Z,100961.38
2022-09-11T13:06:42.142Z,100956.53
2022-09-11T13:09:49.204Z,100954.78
2022-09-11T13:12:53.983Z,100952.75
2022-09-11T13:15:58.398Z,100952.13
2022-09-11T13:19:03.294Z,100947.78
2022-09-11T13:22:24.960Z,100945.84
2022-09-11T13:25:28.103Z,100944.28
2022-09-11T13:28:31.777Z,100944.09
2022-09-11T13:31:36.131Z,100942.28
2022-09-11T13:34:38.547Z,100941.78
2022-09-11T13:37:46.835Z,100947.84
2022-09-11T13:41:12.968Z,100943.03
2022-09-11T13:44:46.410Z,100944.66
2022-09-11T13:47:48.043Z,100942.72
2022-09-11T13:50:51.030Z,100944.50
2022-09-11T13:54:07.558Z,100945.06
2022-09-11T13:57:16.974Z,100940.16
2022-09-11T14:00:38.661Z,100941.19
2022-09-11T14:03:47.150Z,100930.47
2022-09-11T14:06:48.868Z,100935.22
2022-09-11T14:10:04.195Z,100933.09
2022-09-11T14:13:33.095Z,100932.97
2022-09-11T14:16:39.214Z,100924.50
2022-09-11T14:19:44.401Z,100919.31
2022-09-11T14:22:47.615Z,100921.13
2022-09-11T14:26:10.636Z,100918.66
2022-09-11T14:29:12.904Z,100919.88
2022-09-11T14:32:33.064Z,100910.09
2022-09-11T14:35:36.180Z,100915.38
2022-09-11T14:38:38.245Z,100904.34
2022-09-11T14:41:43.952Z,100903.03
2022-09-11T14:44:45.716Z,100908.69
2022-09-11T14:47:47.329Z,100912.44
2022-09-11T14:50:49.191Z,100912.75
2022-09-11T14:53:50.915Z,100908.88
2022-09-11T14:56:52.660Z,100899.38
2022-09-11T14:59:54.348Z,100892.59
2022-09-11T15:02:56.216Z,100900.13
2022-09-11T15:05:58.652Z,100906.63
2022-09-11T15:09:01.579Z,100900.19
2022-09-11T15:12:07.605Z,100900.88
2022-09-11T15:15:09.657Z,100901.06
2022-09-11T15:18:11.379Z,100901.72
2022-09-11T15:21:13.048Z,100893.19
2022-09-11T15:24:14.916Z,100893.38
2022-09-11T15:27:19.075Z,100890.78
2022-09-11T15:30:21.475Z,100877.38
2022-09-11T15:33:23.193Z,100885.03
2022-09-11T15:36:26.471Z,100876.41
2022-09-11T15:39:28.216Z,100869.31
2022-09-11T15:42:30.958Z,100873.59
2022-09-11T15:45:32.797Z,100872.94
2022-09-11T15:48:34.518Z,100880.78
2022-09-11T15:51:36.128Z,100871.88
2022-09-11T15:54:37.781Z,100873.84
2022-09-11T15:57:39.825Z,100874.16
2022-09-11T16:00:41.471Z,100869.41
2022-09-11T16:03:43.481Z,100867.06
2022-09-11T16:06:47.603Z,100868.09
2022-09-11T16:09:49.249Z,100870.38
2022-09-11T16:12:52.093Z,100863.31
2022-09-11T16:16:05.235Z,100877.31
2022-09-11T16:19:06.959Z,100872.78
2022-09-11T16:22:08.845Z,100873.13
2022-09-11T16:25:10.536Z,100873.19
2022-09-11T16:28:12.233Z,100861.56
2022-09-11T16:31:14.865Z,100856.03
2022-09-11T16:34:17.944Z,100861.09
2022-09-11T16:37:19.743Z,100860.53
2022-09-11T16:40:21.449Z,100855.00
2022-09-11T16:43:23.100Z,100861.06
2022-09-11T16:46:26.239Z,100857.78
2022-09-11T16:49:27.840Z,100851.25
2022-09-11T16:52:29.501Z,100850.16
2022-09-11T16:55:31.358Z,100846.47
2022-09-11T16:58:34.629Z,100842.38
2022-09-11T17:01:36.976Z,100851.66
2022-09-11T17:04:38.646Z,100840.53
2022-09-11T17:07:41.552Z,100834.16
2022-09-11T17:10:47.138Z,100828.44
2022-09-11T17:13:49.291Z,100821.91
2022-09-11T17:16:50.905Z,100829.81
2022-09-11T17:19:52.879Z,100832.78
2022-09-11T17:22:58.024Z,100838.94
2022-09-11T17:26:00.022Z,100829.13
2022-09-11T17:29:03.444Z,100839.03
2022-09-11T17:32:26.894Z,100838.31
2022-09-11T17:35:26.945Z,100843.31
2022-09-11T17:38:29.104Z,100840.91
2022-09-11T17:41:31.071Z,100842.34
2022-09-11T17:44:33.761Z,100839.78
2022-09-11T17:47:35.913Z,100845.22
2022-09-11T17:50:37.601Z,100838.91
2022-09-11T17:53:41.800Z,100846.56
2022-09-11T17:56:43.652Z,100842.88
2022-09-11T17:59:49.900Z,100850.69
2022-09-11T18:02:52.771Z,100848.84
2022-09-11T18:05:54.436Z,100843.84
2022-09-11T18:09:01.888Z,100847.69
2022-09-11T18:12:03.812Z,100848.41
2022-09-11T18:15:06.409Z,100850.78
2022-09-11T18:18:08.007Z,100857.78
2022-09-11T18:21:11.316Z,100857.06
2022-09-11T18:24:19.770Z,100859.31
2022-09-11T18:27:21.550Z,100858.03
2022-09-11T18:30:24.139Z,100851.56
2022-09-11T18:33:25.807Z,100852.13
2022-09-11T18:36:30.561Z,100854.38
2022-09-11T18:39:33.814Z,100854.22
2022-09-11T18:42:35.395Z,100853.88
2022-09-11T18:45:37.029Z,100858.84
2022-09-11T18:48:42.011Z,100854.56
2022-09-11T18:51:43.882Z,100856.66
2022-09-11T18:54:45.434Z,100868.84
2022-09-11T18:57:49.141Z,100860.44
2022-09-11T19:00:52.287Z,100868.06
2022-09-11T19:03:53.945Z,100872.19
2022-09-11T19:06:55.576Z,100872.56
2022-09-11T19:09:57.525Z,100874.81
2022-09-11T19:13:00.271Z,100877.78
2022-09-11T19:16:04.083Z,100873.72
2022-09-11T19:19:07.582Z,100876.59
2022-09-11T19:22:09.165Z,100884.34
2022-09-11T19:25:10.918Z,100878.47
2022-09-11T19:28:12.531Z,100878.84
2022-09-11T19:31:16.296Z,100873.88
2022-09-11T19:34:17.936Z,100877.91
2022-09-11T19:37:20.990Z,100881.75
2022-09-11T19:40:22.581Z,100889.97
2022-09-11T19:43:25.303Z,100890.25
2022-09-11T19:46:28.260Z,100901.16
2022-09-11T19:49:30.007Z,100894.44
2022-09-11T19:52:33.175Z,100896.53
2022-09-11T19:55:35.221Z,100902.31
2022-09-11T19:58:38.743Z,100893.59
2022-09-11T20:01:40.344Z,100893.88
2022-09-11T20:04:41.934Z,100898.69
2022-09-11T20:07:43.728Z,100897.09
2022-09-11T20:10:46.787Z,100891.91
2022-09-11T20:13:49.036Z,100898.31
2022-09-11T20:16:50.632Z,100897.84
2022-09-11T20:19:52.736Z,100900.66
2022-09-11T20:22:54.934Z,100894.66
2022-09-11T20:26:20.209Z,100902.00
2022-09-11T20:29:22.004Z,100898.78
2022-09-11T20:32:23.707Z,100895.34
2022-09-11T20:35:25.610Z,100900.06
2022-09-11T20:38:27.155Z,100900.28
2022-09-11T20:41:30.563Z,100900.41
2022-09-11T20:44:36.741Z,100893.53
2022-09-11T20:47:38.783Z,100897.25
2022-09-11T20:50:40.350Z,100895.50
2022-09-11T20:53:45.551Z,100896.50
2022-09-11T20:56:47.264Z,100888.53
2022-09-11T20:59:49.928Z,100887.56
2022-09-11T21:02:51.477Z,100887.81
2022-09-11T21:05:54.211Z,100882.53
2022-09-11T21:08:58.502Z,100886.06
2022-09-11T21:12:00.135Z,100885.47
2022-09-11T21:15:01.845Z,100883.88
2022-09-11T21:18:03.507Z,100881.31
2022-09-11T21:21:06.122Z,100883.16
2022-09-11T21:24:12.432Z,100880.72
2022-09-11T21:27:14.060Z,100882.66
2022-09-11T21:30:15.660Z,100883.75
2022-09-11T21:33:17.689Z,100883.75
2022-09-11T21:36:19.347Z,100875.78
2022-09-11T21:39:20.944Z,100867.09
2022-09-11T21:42:22.492Z,100863.66
2022-09-11T21:45:24.073Z,100872.13
2022-09-11T21:48:26.098Z,100869.56
2022-09-11T21:51:27.700Z,100865.38
2022-09-11T21:54:31.927Z,100858.28
2022-09-11T21:57:33.751Z,100866.47
2022-09-11T22:00:42.034Z,100859.25
2022-09-11T22:03:46.158Z,100862.09
2022-09-11T22:06:47.906Z,100846.38
2022-09-11T22:09:49.511Z,100847.38
2022-09-11T22:12:51.338Z,100847.63
2022-09-11T22:15:52.970Z,100853.13
2022-09-11T22:18:55.041Z,100849.47
2022-09-11T22:21:56.655Z,100855.09
2022-09-11T22:24:58.222Z,100850.69
2022-09-11T22:27:59.850Z,100852.78
2022-09-11T22:31:05.655Z,100857.41
2022-09-11T22:34:07.289Z,100859.47
2022-09-11T22:37:08.869Z,100856.19
2022-09-11T22:40:10.822Z,100856.44
2022-09-11T22:43:12.443Z,100844.06
2022-09-11T22:46:14.413Z,100856.78
2022-09-11T22:49:16.300Z,100861.44
2022-09-11T22:52:18.002Z,100851.88
2022-09-11T22:55:19.688Z,100854.78
2022-09-11T22:58:22.415Z,100852.34
2022-09-11T23:01:24.625Z,100856.13
2022-09-11T23:04:26.282Z,100857.25
2022-09-11T23:07:27.894Z,100859.06
2022-09-11T23:10:29.511Z,100859.31
2022-09-11T23:13:32.117Z,100852.34
2022-09-11T23:16:33.850Z,100851.59
2022-09-11T23:19:35.936Z,100859.78
2022-09-11T23:22:37.543Z,100848.28
2022-09-11T23:25:41.785Z,100845.59
2022-09-11T23:28:43.461Z,100848.41
2022-09-11T23:31:45.166Z,100850.25
2022-09-11T23:34:46.795Z,100855.88
2022-09-11T23:37:49.744Z,100858.66
2022-09-11T23:40:51.575Z,100850.84
2022-09-11T23:43:53.249Z,100854.63
2022-09-11T23:46:54.866Z,100854.47
2022-09-11T23:49:57.646Z,100852.78
2022-09-11T23:52:59.261Z,100850.31
2022-09-11T23:56:00.873Z,100846.03
2022-09-11T23:59:02.424Z,100841.72
